sensor_id;sensor_type;location;lat;lon;timestamp;P1;durP1;ratioP1;P2;durP2;ratioP2
44832;SDS011;30569;51.252;9.830;2022-11-20T00:00:55;8.63;;;5.30;;
44832;SDS011;30569;51.252;9.830;2022-11-20T00:03:21;10.03;;;5.67;;
44832;SDS011;30569;51.252;9.830;2022-11-20T00:05:47;7.37;;;4.80;;
44832;SDS011;30569;51.252;9.830;2022-11-20T00:08:12;9.70;;;5.40;;
44832;SDS011;30569;51.252;9.830;2022-11-20T00:10:38;8.97;;;5.23;;
44832;SDS011;30569;51.252;9.830;2022-11-20T00:13:05;11.17;;;6.07;;
44832;SDS011;30569;51.252;9.830;2022-11-20T00:15:31;8.73;;;5.83;;
44832;SDS011;30569;51.252;9.830;2022-11-20T00:17:57;9.77;;;6.27;;
44832;SDS011;30569;51.252;9.830;2022-11-20T00:20:22;9.83;;;5.83;;
44832;SDS011;30569;51.252;9.830;2022-11-20T00:22:49;11.40;;;7.10;;
44832;SDS011;30569;51.252;9.830;2022-11-20T00:25:14;12.60;;;7.00;;
44832;SDS011;30569;51.252;9.830;2022-11-20T00:27:40;11.10;;;6.87;;
44832;SDS011;30569;51.252;9.830;2022-11-20T00:30:06;9.37;;;5.77;;
44832;SDS011;30569;51.252;9.830;2022-11-20T00:32:32;9.60;;;6.53;;
44832;SDS011;30569;51.252;9.830;2022-11-20T00:34:57;10.50;;;6.57;;
44832;SDS011;30569;51.252;9.830;2022-11-20T00:37:23;9.07;;;5.60;;
44832;SDS011;30569;51.252;9.830;2022-11-20T00:39:48;8.87;;;5.87;;
44832;SDS011;30569;51.252;9.830;2022-11-20T00:42:14;11.57;;;6.40;;
44832;SDS011;30569;51.252;9.830;2022-11-20T00:44:39;9.70;;;6.10;;
44832;SDS011;30569;51.252;9.830;2022-11-20T00:47:05;11.50;;;6.80;;
44832;SDS011;30569;51.252;9.830;2022-11-20T00:49:31;10.43;;;6.43;;
44832;SDS011;30569;51.252;9.830;2022-11-20T00:51:56;13.23;;;7.13;;
44832;SDS011;30569;51.252;9.830;2022-11-20T00:54:22;11.37;;;6.57;;
44832;SDS011;30569;51.252;9.830;2022-11-20T00:56:48;12.23;;;6.47;;
44832;SDS011;30569;51.252;9.830;2022-11-20T00:59:14;10.73;;;6.20;;
44832;SDS011;30569;51.252;9.830;2022-11-20T01:01:40;11.03;;;6.63;;
44832;SDS011;30569;51.252;9.830;2022-11-20T01:04:06;11.63;;;7.00;;
44832;SDS011;30569;51.252;9.830;2022-11-20T01:06:32;13.57;;;7.53;;
44832;SDS011;30569;51.252;9.830;2022-11-20T01:09:00;11.60;;;7.17;;
44832;SDS011;30569;51.252;9.830;2022-11-20T01:11:29;10.67;;;6.27;;
44832;SDS011;30569;51.252;9.830;2022-11-20T01:13:56;10.80;;;6.07;;
44832;SDS011;30569;51.252;9.830;2022-11-20T01:16:27;9.63;;;6.10;;
44832;SDS011;30569;51.252;9.830;2022-11-20T01:19:05;9.67;;;6.03;;
44832;SDS011;30569;51.252;9.830;2022-11-20T01:21:34;11.37;;;6.40;;
44832;SDS011;30569;51.252;9.830;2022-11-20T01:24:01;11.20;;;5.93;;
44832;SDS011;30569;51.252;9.830;2022-11-20T01:26:29;8.57;;;5.33;;
44832;SDS011;30569;51.252;9.830;2022-11-20T01:28:59;8.63;;;5.13;;
44832;SDS011;30569;51.252;9.830;2022-11-20T01:31:29;6.80;;;4.73;;
44832;SDS011;30569;51.252;9.830;2022-11-20T01:33:56;11.20;;;5.47;;
44832;SDS011;30569;51.252;9.830;2022-11-20T01:36:25;10.33;;;5.57;;
44832;SDS011;30569;51.252;9.830;2022-11-20T01:38:53;10.47;;;5.80;;
44832;SDS011;30569;51.252;9.830;2022-11-20T01:41:19;10.20;;;5.83;;
44832;SDS011;30569;51.252;9.830;2022-11-20T01:44:04;10.83;;;6.50;;
44832;SDS011;30569;51.252;9.830;2022-11-20T01:46:31;13.63;;;5.70;;
44832;SDS011;30569;51.252;9.830;2022-11-20T01:51:33;10.73;;;5.97;;
44832;SDS011;30569;51.252;9.830;2022-11-20T01:54:05;10.10;;;6.00;;
44832;SDS011;30569;51.252;9.830;2022-11-20T01:56:35;11.93;;;6.60;;
44832;SDS011;30569;51.252;9.830;2022-11-20T01:59:05;10.53;;;6.50;;
44832;SDS011;30569;51.252;9.830;2022-11-20T02:01:33;11.80;;;6.30;;
44832;SDS011;30569;51.252;9.830;2022-11-20T02:03:59;13.20;;;7.53;;
44832;SDS011;30569;51.252;9.830;2022-11-20T02:06:27;13.33;;;7.53;;
44832;SDS011;30569;51.252;9.830;2022-11-20T02:08:56;14.00;;;7.30;;
44832;SDS011;30569;51.252;9.830;2022-11-20T02:11:22;12.10;;;6.87;;
44832;SDS011;30569;51.252;9.830;2022-11-20T02:13:47;12.37;;;7.37;;
44832;SDS011;30569;51.252;9.830;2022-11-20T02:16:24;12.80;;;6.40;;
44832;SDS011;30569;51.252;9.830;2022-11-20T02:18:53;11.37;;;6.70;;
44832;SDS011;30569;51.252;9.830;2022-11-20T02:26:31;12.63;;;7.30;;
44832;SDS011;30569;51.252;9.830;2022-11-20T02:29:19;17.13;;;8.27;;
44832;SDS011;30569;51.252;9.830;2022-11-20T02:31:55;14.30;;;8.23;;
44832;SDS011;30569;51.252;9.830;2022-11-20T02:34:22;15.30;;;7.43;;
44832;SDS011;30569;51.252;9.830;2022-11-20T02:36:48;14.10;;;7.73;;
44832;SDS011;30569;51.252;9.830;2022-11-20T02:39:16;12.97;;;7.00;;
44832;SDS011;30569;51.252;9.830;2022-11-20T02:41:42;12.37;;;7.43;;
44832;SDS011;30569;51.252;9.830;2022-11-20T02:44:08;13.07;;;7.20;;
44832;SDS011;30569;51.252;9.830;2022-11-20T02:46:33;14.43;;;7.20;;
44832;SDS011;30569;51.252;9.830;2022-11-20T02:49:00;17.33;;;8.47;;
44832;SDS011;30569;51.252;9.830;2022-11-20T02:51:26;16.83;;;8.33;;
44832;SDS011;30569;51.252;9.830;2022-11-20T02:53:52;16.27;;;7.60;;
44832;SDS011;30569;51.252;9.830;2022-11-20T02:56:18;16.80;;;8.40;;
44832;SDS011;30569;51.252;9.830;2022-11-20T02:58:43;17.53;;;9.27;;
44832;SDS011;30569;51.252;9.830;2022-11-20T03:01:09;17.63;;;8.80;;
44832;SDS011;30569;51.252;9.830;2022-11-20T03:03:34;15.40;;;8.57;;
44832;SDS011;30569;51.252;9.830;2022-11-20T03:06:00;15.73;;;9.03;;
44832;SDS011;30569;51.252;9.830;2022-11-20T03:08:26;17.97;;;9.00;;
44832;SDS011;30569;51.252;9.830;2022-11-20T03:10:51;15.90;;;9.03;;
44832;SDS011;30569;51.252;9.830;2022-11-20T03:13:17;15.10;;;7.80;;
44832;SDS011;30569;51.252;9.830;2022-11-20T03:15:43;17.13;;;8.80;;
44832;SDS011;30569;51.252;9.830;2022-11-20T03:18:09;17.00;;;8.63;;
44832;SDS011;30569;51.252;9.830;2022-11-20T03:20:35;19.33;;;9.07;;
44832;SDS011;30569;51.252;9.830;2022-11-20T03:23:01;18.10;;;8.70;;
44832;SDS011;30569;51.252;9.830;2022-11-20T03:25:27;16.43;;;8.97;;
44832;SDS011;30569;51.252;9.830;2022-11-20T03:27:54;13.87;;;8.03;;
44832;SDS011;30569;51.252;9.830;2022-11-20T03:30:20;20.13;;;9.27;;
44832;SDS011;30569;51.252;9.830;2022-11-20T03:32:45;16.97;;;9.97;;
44832;SDS011;30569;51.252;9.830;2022-11-20T03:35:11;15.27;;;8.17;;
44832;SDS011;30569;51.252;9.830;2022-11-20T03:37:37;17.80;;;9.30;;
44832;SDS011;30569;51.252;9.830;2022-11-20T03:40:03;18.23;;;9.33;;
44832;SDS011;30569;51.252;9.830;2022-11-20T03:42:29;18.10;;;8.80;;
44832;SDS011;30569;51.252;9.830;2022-11-20T03:45:11;19.83;;;9.57;;
44832;SDS011;30569;51.252;9.830;2022-11-20T03:47:41;16.77;;;8.37;;
44832;SDS011;30569;51.252;9.830;2022-11-20T03:50:07;14.67;;;7.93;;
44832;SDS011;30569;51.252;9.830;2022-11-20T03:52:34;16.93;;;8.90;;
44832;SDS011;30569;51.252;9.830;2022-11-20T03:55:00;15.30;;;8.03;;
44832;SDS011;30569;51.252;9.830;2022-11-20T03:57:25;17.37;;;9.17;;
44832;SDS011;30569;51.252;9.830;2022-11-20T03:59:51;16.40;;;9.10;;
44832;SDS011;30569;51.252;9.830;2022-11-20T04:02:17;16.63;;;9.30;;
44832;SDS011;30569;51.252;9.830;2022-11-20T04:04:42;15.87;;;8.53;;
44832;SDS011;30569;51.252;9.830;2022-11-20T04:07:08;16.93;;;7.60;;
44832;SDS011;30569;51.252;9.830;2022-11-20T04:09:33;15.80;;;8.27;;
44832;SDS011;30569;51.252;9.830;2022-11-20T04:11:59;14.67;;;7.70;;
44832;SDS011;30569;51.252;9.830;2022-11-20T04:14:25;17.27;;;8.67;;
44832;SDS011;30569;51.252;9.830;2022-11-20T04:16:50;15.23;;;8.27;;
44832;SDS011;30569;51.252;9.830;2022-11-20T04:19:16;16.30;;;8.23;;
44832;SDS011;30569;51.252;9.830;2022-11-20T04:21:42;17.40;;;9.23;;
44832;SDS011;30569;51.252;9.830;2022-11-20T04:24:09;18.87;;;9.33;;
44832;SDS011;30569;51.252;9.830;2022-11-20T04:26:35;18.60;;;9.27;;
44832;SDS011;30569;51.252;9.830;2022-11-20T04:29:01;18.03;;;9.23;;
44832;SDS011;30569;51.252;9.830;2022-11-20T04:31:29;23.00;;;10.47;;
44832;SDS011;30569;51.252;9.830;2022-11-20T04:33:58;20.23;;;10.40;;
44832;SDS011;30569;51.252;9.830;2022-11-20T04:36:26;16.70;;;8.57;;
44832;SDS011;30569;51.252;9.830;2022-11-20T04:38:56;17.93;;;9.43;;
44832;SDS011;30569;51.252;9.830;2022-11-20T04:41:25;27.30;;;12.30;;
44832;SDS011;30569;51.252;9.830;2022-11-20T04:43:53;52.67;;;19.00;;
44832;SDS011;30569;51.252;9.830;2022-11-20T04:46:28;57.00;;;23.10;;
44832;SDS011;30569;51.252;9.830;2022-11-20T04:49:01;50.10;;;21.88;;
44832;SDS011;30569;51.252;9.830;2022-11-20T04:51:26;45.10;;;19.97;;
44832;SDS011;30569;51.252;9.830;2022-11-20T04:53:52;50.57;;;22.30;;
44832;SDS011;30569;51.252;9.830;2022-11-20T04:56:18;45.67;;;20.20;;
44832;SDS011;30569;51.252;9.830;2022-11-20T04:58:44;36.10;;;17.70;;
44832;SDS011;30569;51.252;9.830;2022-11-20T05:01:14;46.17;;;22.40;;
44832;SDS011;30569;51.252;9.830;2022-11-20T05:03:41;78.07;;;30.87;;
44832;SDS011;30569;51.252;9.830;2022-11-20T05:06:08;88.43;;;36.93;;
44832;SDS011;30569;51.252;9.830;2022-11-20T05:08:35;70.70;;;30.93;;
44832;SDS011;30569;51.252;9.830;2022-11-20T05:11:05;89.87;;;35.77;;
44832;SDS011;30569;51.252;9.830;2022-11-20T05:13:33;89.43;;;37.43;;
44832;SDS011;30569;51.252;9.830;2022-11-20T05:16:02;106.60;;;42.57;;
44832;SDS011;30569;51.252;9.830;2022-11-20T05:18:30;241.90;;;84.17;;
44832;SDS011;30569;51.252;9.830;2022-11-20T05:20:58;224.17;;;79.17;;
44832;SDS011;30569;51.252;9.830;2022-11-20T05:23:24;163.17;;;59.87;;
44832;SDS011;30569;51.252;9.830;2022-11-20T05:25:54;203.57;;;77.47;;
44832;SDS011;30569;51.252;9.830;2022-11-20T05:28:20;108.43;;;42.77;;
44832;SDS011;30569;51.252;9.830;2022-11-20T05:30:46;103.40;;;43.20;;
44832;SDS011;30569;51.252;9.830;2022-11-20T05:33:12;79.87;;;32.60;;
44832;SDS011;30569;51.252;9.830;2022-11-20T05:35:38;52.07;;;23.60;;
44832;SDS011;30569;51.252;9.830;2022-11-20T05:38:03;48.80;;;21.57;;
44832;SDS011;30569;51.252;9.830;2022-11-20T05:40:29;47.10;;;23.33;;
44832;SDS011;30569;51.252;9.830;2022-11-20T05:42:54;46.10;;;21.90;;
44832;SDS011;30569;51.252;9.830;2022-11-20T05:45:20;42.17;;;20.93;;
44832;SDS011;30569;51.252;9.830;2022-11-20T05:47:46;30.80;;;15.23;;
44832;SDS011;30569;51.252;9.830;2022-11-20T05:50:11;26.07;;;13.47;;
44832;SDS011;30569;51.252;9.830;2022-11-20T05:52:38;25.17;;;11.97;;
44832;SDS011;30569;51.252;9.830;2022-11-20T05:55:03;23.33;;;11.60;;
44832;SDS011;30569;51.252;9.830;2022-11-20T05:57:30;24.23;;;11.63;;
44832;SDS011;30569;51.252;9.830;2022-11-20T05:59:56;23.23;;;11.73;;
44832;SDS011;30569;51.252;9.830;2022-11-20T06:02:21;26.40;;;12.27;;
44832;SDS011;30569;51.252;9.830;2022-11-20T06:04:47;22.97;;;11.83;;
44832;SDS011;30569;51.252;9.830;2022-11-20T06:07:13;28.27;;;12.73;;
44832;SDS011;30569;51.252;9.830;2022-11-20T06:09:39;26.53;;;12.27;;
44832;SDS011;30569;51.252;9.830;2022-11-20T06:12:05;22.77;;;12.20;;
44832;SDS011;30569;51.252;9.830;2022-11-20T06:14:30;24.40;;;12.40;;
44832;SDS011;30569;51.252;9.830;2022-11-20T06:16:56;26.33;;;12.50;;
44832;SDS011;30569;51.252;9.830;2022-11-20T06:19:21;22.53;;;12.23;;
44832;SDS011;30569;51.252;9.830;2022-11-20T06:21:48;24.77;;;12.77;;
44832;SDS011;30569;51.252;9.830;2022-11-20T06:24:14;24.13;;;12.30;;
44832;SDS011;30569;51.252;9.830;2022-11-20T06:26:40;25.23;;;11.97;;
44832;SDS011;30569;51.252;9.830;2022-11-20T06:29:06;25.23;;;12.87;;
44832;SDS011;30569;51.252;9.830;2022-11-20T06:31:32;21.43;;;11.50;;
44832;SDS011;30569;51.252;9.830;2022-11-20T06:33:59;24.40;;;12.90;;
44832;SDS011;30569;51.252;9.830;2022-11-20T06:36:25;21.13;;;11.43;;
44832;SDS011;30569;51.252;9.830;2022-11-20T06:38:51;23.73;;;11.80;;
44832;SDS011;30569;51.252;9.830;2022-11-20T06:41:18;23.37;;;13.03;;
44832;SDS011;30569;51.252;9.830;2022-11-20T06:43:45;28.47;;;13.57;;
44832;SDS011;30569;51.252;9.830;2022-11-20T06:46:11;25.73;;;12.40;;
44832;SDS011;30569;51.252;9.830;2022-11-20T06:48:41;19.43;;;9.27;;
44832;SDS011;30569;51.252;9.830;2022-11-20T06:51:07;16.83;;;8.50;;
44832;SDS011;30569;51.252;9.830;2022-11-20T06:53:33;17.00;;;9.53;;
44832;SDS011;30569;51.252;9.830;2022-11-20T06:55:59;17.87;;;10.33;;
44832;SDS011;30569;51.252;9.830;2022-11-20T06:58:26;19.53;;;9.77;;
44832;SDS011;30569;51.252;9.830;2022-11-20T07:00:53;31.30;;;18.50;;
44832;SDS011;30569;51.252;9.830;2022-11-20T07:03:23;25.93;;;14.30;;
44832;SDS011;30569;51.252;9.830;2022-11-20T07:05:48;23.80;;;13.10;;
44832;SDS011;30569;51.252;9.830;2022-11-20T07:08:14;22.30;;;11.47;;
44832;SDS011;30569;51.252;9.830;2022-11-20T07:10:39;19.67;;;10.60;;
44832;SDS011;30569;51.252;9.830;2022-11-20T07:13:05;18.77;;;9.87;;
44832;SDS011;30569;51.252;9.830;2022-11-20T07:15:31;22.50;;;11.57;;
44832;SDS011;30569;51.252;9.830;2022-11-20T07:18:00;18.77;;;9.80;;
44832;SDS011;30569;51.252;9.830;2022-11-20T07:20:26;19.70;;;9.03;;
44832;SDS011;30569;51.252;9.830;2022-11-20T07:22:53;20.17;;;10.20;;
44832;SDS011;30569;51.252;9.830;2022-11-20T07:25:21;18.47;;;9.73;;
44832;SDS011;30569;51.252;9.830;2022-11-20T07:27:47;19.33;;;10.43;;
44832;SDS011;30569;51.252;9.830;2022-11-20T07:30:14;19.37;;;9.97;;
44832;SDS011;30569;51.252;9.830;2022-11-20T07:32:40;17.90;;;8.87;;
44832;SDS011;30569;51.252;9.830;2022-11-20T07:35:06;22.47;;;12.57;;
44832;SDS011;30569;51.252;9.830;2022-11-20T07:37:35;21.30;;;11.60;;
44832;SDS011;30569;51.252;9.830;2022-11-20T07:40:01;27.23;;;14.50;;
44832;SDS011;30569;51.252;9.830;2022-11-20T07:42:26;28.53;;;15.70;;
44832;SDS011;30569;51.252;9.830;2022-11-20T07:44:52;26.67;;;13.77;;
44832;SDS011;30569;51.252;9.830;2022-11-20T07:47:18;24.90;;;13.37;;
44832;SDS011;30569;51.252;9.830;2022-11-20T07:49:43;19.57;;;11.30;;
44832;SDS011;30569;51.252;9.830;2022-11-20T07:52:10;22.73;;;11.23;;
44832;SDS011;30569;51.252;9.830;2022-11-20T07:54:35;17.77;;;10.13;;
44832;SDS011;30569;51.252;9.830;2022-11-20T07:57:01;25.10;;;12.70;;
44832;SDS011;30569;51.252;9.830;2022-11-20T07:59:27;22.47;;;12.27;;
44832;SDS011;30569;51.252;9.830;2022-11-20T08:01:52;23.50;;;12.87;;
44832;SDS011;30569;51.252;9.830;2022-11-20T08:04:18;18.17;;;8.40;;
44832;SDS011;30569;51.252;9.830;2022-11-20T08:06:43;13.93;;;7.87;;
44832;SDS011;30569;51.252;9.830;2022-11-20T08:09:09;23.57;;;7.20;;
44832;SDS011;30569;51.252;9.830;2022-11-20T08:11:35;13.47;;;7.07;;
44832;SDS011;30569;51.252;9.830;2022-11-20T08:14:19;12.90;;;7.50;;
44832;SDS011;30569;51.252;9.830;2022-11-20T08:16:45;14.10;;;6.93;;
44832;SDS011;30569;51.252;9.830;2022-11-20T08:19:12;13.73;;;7.20;;
44832;SDS011;30569;51.252;9.830;2022-11-20T08:21:39;15.17;;;8.13;;
44832;SDS011;30569;51.252;9.830;2022-11-20T08:24:06;16.13;;;7.20;;
44832;SDS011;30569;51.252;9.830;2022-11-20T08:26:32;13.70;;;7.27;;
44832;SDS011;30569;51.252;9.830;2022-11-20T08:29:00;13.77;;;6.83;;
44832;SDS011;30569;51.252;9.830;2022-11-20T08:31:26;14.60;;;7.37;;
44832;SDS011;30569;51.252;9.830;2022-11-20T08:33:52;14.37;;;7.80;;
44832;SDS011;30569;51.252;9.830;2022-11-20T08:36:19;14.40;;;7.67;;
44832;SDS011;30569;51.252;9.830;2022-11-20T08:38:49;17.43;;;8.00;;
44832;SDS011;30569;51.252;9.830;2022-11-20T08:41:16;16.23;;;8.20;;
44832;SDS011;30569;51.252;9.830;2022-11-20T08:44:10;15.53;;;7.90;;
44832;SDS011;30569;51.252;9.830;2022-11-20T08:46:38;13.97;;;6.83;;
44832;SDS011;30569;51.252;9.830;2022-11-20T08:49:06;13.57;;;7.77;;
44832;SDS011;30569;51.252;9.830;2022-11-20T08:51:34;15.20;;;7.40;;
44832;SDS011;30569;51.252;9.830;2022-11-20T08:53:59;16.03;;;9.37;;
44832;SDS011;30569;51.252;9.830;2022-11-20T08:56:25;17.43;;;8.17;;
44832;SDS011;30569;51.252;9.830;2022-11-20T08:58:51;18.43;;;10.00;;
44832;SDS011;30569;51.252;9.830;2022-11-20T09:01:17;14.83;;;8.13;;
44832;SDS011;30569;51.252;9.830;2022-11-20T09:03:43;17.80;;;9.37;;
44832;SDS011;30569;51.252;9.830;2022-11-20T09:06:09;17.63;;;9.27;;
44832;SDS011;30569;51.252;9.830;2022-11-20T09:08:34;17.90;;;8.60;;
44832;SDS011;30569;51.252;9.830;2022-11-20T09:11:01;19.03;;;9.63;;
44832;SDS011;30569;51.252;9.830;2022-11-20T09:13:27;24.30;;;11.23;;
44832;SDS011;30569;51.252;9.830;2022-11-20T09:16:01;22.97;;;12.47;;
44832;SDS011;30569;51.252;9.830;2022-11-20T09:18:32;24.50;;;12.90;;
44832;SDS011;30569;51.252;9.830;2022-11-20T09:20:59;27.10;;;13.73;;
44832;SDS011;30569;51.252;9.830;2022-11-20T09:23:25;22.07;;;12.50;;
44832;SDS011;30569;51.252;9.830;2022-11-20T09:25:51;22.93;;;12.30;;
44832;SDS011;30569;51.252;9.830;2022-11-20T09:28:17;24.30;;;12.50;;
44832;SDS011;30569;51.252;9.830;2022-11-20T09:30:43;22.77;;;11.77;;
44832;SDS011;30569;51.252;9.830;2022-11-20T09:33:09;22.90;;;12.00;;
44832;SDS011;30569;51.252;9.830;2022-11-20T09:35:35;22.80;;;12.07;;
44832;SDS011;30569;51.252;9.830;2022-11-20T09:38:04;22.13;;;12.17;;
44832;SDS011;30569;51.252;9.830;2022-11-20T09:40:34;21.73;;;11.65;;
44832;SDS011;30569;51.252;9.830;2022-11-20T09:51:16;31.30;;;18.67;;
44832;SDS011;30569;51.252;9.830;2022-11-20T09:56:33;25.33;;;13.30;;
44832;SDS011;30569;51.252;9.830;2022-11-20T09:59:04;24.73;;;13.53;;
44832;SDS011;30569;51.252;9.830;2022-11-20T10:01:32;27.23;;;14.50;;
44832;SDS011;30569;51.252;9.830;2022-11-20T10:04:12;23.33;;;13.03;;
44832;SDS011;30569;51.252;9.830;2022-11-20T10:06:41;23.27;;;12.40;;
44832;SDS011;30569;51.252;9.830;2022-11-20T10:09:21;18.77;;;10.63;;
44832;SDS011;30569;51.252;9.830;2022-11-20T10:17:53;16.97;;;9.40;;
44832;SDS011;30569;51.252;9.830;2022-11-20T10:28:43;20.37;;;11.03;;
44832;SDS011;30569;51.252;9.830;2022-11-20T10:31:35;25.50;;;12.47;;
44832;SDS011;30569;51.252;9.830;2022-11-20T10:34:21;26.70;;;13.53;;
44832;SDS011;30569;51.252;9.830;2022-11-20T10:37:00;24.20;;;11.90;;
44832;SDS011;30569;51.252;9.830;2022-11-20T10:42:16;16.90;;;9.40;;
44832;SDS011;30569;51.252;9.830;2022-11-20T10:44:52;17.73;;;9.03;;
44832;SDS011;30569;51.252;9.830;2022-11-20T10:47:25;18.07;;;9.60;;
44832;SDS011;30569;51.252;9.830;2022-11-20T10:49:55;15.70;;;8.70;;
44832;SDS011;30569;51.252;9.830;2022-11-20T10:57:44;16.83;;;8.47;;
44832;SDS011;30569;51.252;9.830;2022-11-20T11:00:12;20.20;;;9.87;;
44832;SDS011;30569;51.252;9.830;2022-11-20T11:05:08;14.83;;;7.33;;
44832;SDS011;30569;51.252;9.830;2022-11-20T11:07:40;13.80;;;8.00;;
44832;SDS011;30569;51.252;9.830;2022-11-20T11:10:27;14.40;;;8.10;;
44832;SDS011;30569;51.252;9.830;2022-11-20T11:12:54;14.97;;;7.67;;
44832;SDS011;30569;51.252;9.830;2022-11-20T11:17:55;13.70;;;7.73;;
44832;SDS011;30569;51.252;9.830;2022-11-20T11:20:22;14.53;;;8.07;;
44832;SDS011;30569;51.252;9.830;2022-11-20T11:22:49;15.90;;;7.53;;
44832;SDS011;30569;51.252;9.830;2022-11-20T11:25:30;13.63;;;7.57;;
44832;SDS011;30569;51.252;9.830;2022-11-20T11:28:17;12.77;;;7.40;;
44832;SDS011;30569;51.252;9.830;2022-11-20T11:30:45;13.40;;;7.60;;
44832;SDS011;30569;51.252;9.830;2022-11-20T11:33:27;12.63;;;7.10;;
44832;SDS011;30569;51.252;9.830;2022-11-20T11:35:55;13.50;;;7.47;;
44832;SDS011;30569;51.252;9.830;2022-11-20T11:40:53;10.77;;;6.63;;
44832;SDS011;30569;51.252;9.830;2022-11-20T11:43:22;11.33;;;6.70;;
44832;SDS011;30569;51.252;9.830;2022-11-20T11:46:25;11.47;;;6.80;;
44832;SDS011;30569;51.252;9.830;2022-11-20T11:48:56;13.17;;;7.23;;
44832;SDS011;30569;51.252;9.830;2022-11-20T11:51:24;12.40;;;6.93;;
44832;SDS011;30569;51.252;9.830;2022-11-20T11:54:15;13.97;;;6.97;;
44832;SDS011;30569;51.252;9.830;2022-11-20T11:56:44;12.40;;;6.27;;
44832;SDS011;30569;51.252;9.830;2022-11-20T11:59:12;11.37;;;6.73;;
44832;SDS011;30569;51.252;9.830;2022-11-20T12:01:51;11.30;;;6.50;;
44832;SDS011;30569;51.252;9.830;2022-11-20T12:07:13;10.97;;;6.50;;
44832;SDS011;30569;51.252;9.830;2022-11-20T12:09:46;11.00;;;6.18;;
44832;SDS011;30569;51.252;9.830;2022-11-20T12:12:20;12.27;;;6.70;;
44832;SDS011;30569;51.252;9.830;2022-11-20T12:14:52;10.63;;;6.07;;
44832;SDS011;30569;51.252;9.830;2022-11-20T12:17:21;11.93;;;6.87;;
44832;SDS011;30569;51.252;9.830;2022-11-20T12:19:46;10.93;;;6.13;;
44832;SDS011;30569;51.252;9.830;2022-11-20T12:25:50;10.90;;;6.27;;
44832;SDS011;30569;51.252;9.830;2022-11-20T12:28:41;11.27;;;6.43;;
44832;SDS011;30569;51.252;9.830;2022-11-20T12:31:24;12.77;;;6.80;;
44832;SDS011;30569;51.252;9.830;2022-11-20T12:39:55;11.10;;;6.47;;
44832;SDS011;30569;51.252;9.830;2022-11-20T12:42:30;12.33;;;6.80;;
44832;SDS011;30569;51.252;9.830;2022-11-20T12:45:54;11.10;;;6.80;;
44832;SDS011;30569;51.252;9.830;2022-11-20T12:51:23;11.13;;;6.40;;
44832;SDS011;30569;51.252;9.830;2022-11-20T12:57:01;11.07;;;5.80;;
44832;SDS011;30569;51.252;9.830;2022-11-20T13:05:12;8.17;;;5.23;;
44832;SDS011;30569;51.252;9.830;2022-11-20T13:07:50;9.13;;;5.27;;
44832;SDS011;30569;51.252;9.830;2022-11-20T13:12:54;9.77;;;5.07;;
44832;SDS011;30569;51.252;9.830;2022-11-20T13:15:34;10.30;;;5.20;;
44832;SDS011;30569;51.252;9.830;2022-11-20T13:18:10;7.80;;;4.30;;
44832;SDS011;30569;51.252;9.830;2022-11-20T13:20:40;11.47;;;5.33;;
44832;SDS011;30569;51.252;9.830;2022-11-20T13:23:10;8.95;;;5.10;;
44832;SDS011;30569;51.252;9.830;2022-11-20T13:25:38;9.80;;;5.10;;
44832;SDS011;30569;51.252;9.830;2022-11-20T13:30:36;10.43;;;5.50;;
44832;SDS011;30569;51.252;9.830;2022-11-20T13:38:47;9.53;;;4.60;;
44832;SDS011;30569;51.252;9.830;2022-11-20T13:43:59;7.73;;;4.20;;
44832;SDS011;30569;51.252;9.830;2022-11-20T13:46:41;7.00;;;3.80;;
44832;SDS011;30569;51.252;9.830;2022-11-20T13:49:25;8.23;;;4.47;;
44832;SDS011;30569;51.252;9.830;2022-11-20T13:51:52;8.67;;;4.27;;
44832;SDS011;30569;51.252;9.830;2022-11-20T14:00:15;9.23;;;4.67;;
44832;SDS011;30569;51.252;9.830;2022-11-20T14:05:31;8.95;;;4.68;;
44832;SDS011;30569;51.252;9.830;2022-11-20T14:08:02;9.30;;;5.57;;
44832;SDS011;30569;51.252;9.830;2022-11-20T14:10:30;9.80;;;5.37;;
44832;SDS011;30569;51.252;9.830;2022-11-20T14:12:57;9.00;;;4.50;;
44832;SDS011;30569;51.252;9.830;2022-11-20T14:15:32;10.83;;;5.53;;
44832;SDS011;30569;51.252;9.830;2022-11-20T14:17:59;9.63;;;4.87;;
44832;SDS011;30569;51.252;9.830;2022-11-20T14:20:36;8.53;;;4.73;;
44832;SDS011;30569;51.252;9.830;2022-11-20T14:23:03;10.57;;;5.40;;
44832;SDS011;30569;51.252;9.830;2022-11-20T14:25:30;7.90;;;5.00;;
44832;SDS011;30569;51.252;9.830;2022-11-20T14:28:00;8.97;;;4.47;;
44832;SDS011;30569;51.252;9.830;2022-11-20T14:30:28;6.67;;;4.03;;
44832;SDS011;30569;51.252;9.830;2022-11-20T14:33:09;8.73;;;4.43;;
44832;SDS011;30569;51.252;9.830;2022-11-20T14:35:39;8.27;;;4.60;;
44832;SDS011;30569;51.252;9.830;2022-11-20T14:38:10;8.97;;;4.63;;
44832;SDS011;30569;51.252;9.830;2022-11-20T14:40:39;7.03;;;4.20;;
44832;SDS011;30569;51.252;9.830;2022-11-20T14:43:23;7.67;;;4.27;;
44832;SDS011;30569;51.252;9.830;2022-11-20T14:46:08;7.85;;;4.15;;
44832;SDS011;30569;51.252;9.830;2022-11-20T14:48:37;7.83;;;4.60;;
44832;SDS011;30569;51.252;9.830;2022-11-20T14:51:41;8.13;;;4.50;;
44832;SDS011;30569;51.252;9.830;2022-11-20T14:54:11;7.25;;;3.75;;
44832;SDS011;30569;51.252;9.830;2022-11-20T14:59:30;7.80;;;4.13;;
44832;SDS011;30569;51.252;9.830;2022-11-20T15:02:02;7.00;;;3.70;;
44832;SDS011;30569;51.252;9.830;2022-11-20T15:04:30;8.23;;;4.50;;
44832;SDS011;30569;51.252;9.830;2022-11-20T15:06:57;7.87;;;3.80;;
44832;SDS011;30569;51.252;9.830;2022-11-20T15:09:23;6.83;;;3.77;;
44832;SDS011;30569;51.252;9.830;2022-11-20T15:11:56;10.93;;;5.67;;
44832;SDS011;30569;51.252;9.830;2022-11-20T15:14:24;8.07;;;5.00;;
44832;SDS011;30569;51.252;9.830;2022-11-20T15:16:51;10.93;;;6.10;;
44832;SDS011;30569;51.252;9.830;2022-11-20T15:19:21;14.93;;;8.50;;
44832;SDS011;30569;51.252;9.830;2022-11-20T15:21:49;12.10;;;6.70;;
44832;SDS011;30569;51.252;9.830;2022-11-20T15:24:15;17.27;;;9.17;;
44832;SDS011;30569;51.252;9.830;2022-11-20T15:26:41;16.40;;;9.33;;
44832;SDS011;30569;51.252;9.830;2022-11-20T15:29:11;31.13;;;18.40;;
44832;SDS011;30569;51.252;9.830;2022-11-20T15:31:39;26.40;;;15.17;;
44832;SDS011;30569;51.252;9.830;2022-11-20T15:34:10;29.73;;;15.33;;
44832;SDS011;30569;51.252;9.830;2022-11-20T15:36:36;26.60;;;14.83;;
44832;SDS011;30569;51.252;9.830;2022-11-20T15:39:02;24.40;;;13.30;;
44832;SDS011;30569;51.252;9.830;2022-11-20T15:41:28;27.83;;;13.00;;
44832;SDS011;30569;51.252;9.830;2022-11-20T15:43:53;20.50;;;10.87;;
44832;SDS011;30569;51.252;9.830;2022-11-20T15:46:23;20.77;;;11.30;;
44832;SDS011;30569;51.252;9.830;2022-11-20T15:48:54;22.50;;;11.10;;
44832;SDS011;30569;51.252;9.830;2022-11-20T15:51:24;18.63;;;11.07;;
44832;SDS011;30569;51.252;9.830;2022-11-20T15:53:55;19.07;;;11.00;;
44832;SDS011;30569;51.252;9.830;2022-11-20T15:56:22;17.43;;;10.17;;
44832;SDS011;30569;51.252;9.830;2022-11-20T15:58:47;16.47;;;9.10;;
44832;SDS011;30569;51.252;9.830;2022-11-20T16:01:13;17.53;;;8.57;;
44832;SDS011;30569;51.252;9.830;2022-11-20T16:03:41;14.87;;;8.93;;
44832;SDS011;30569;51.252;9.830;2022-11-20T16:06:07;18.30;;;8.53;;
44832;SDS011;30569;51.252;9.830;2022-11-20T16:08:33;15.87;;;9.43;;
44832;SDS011;30569;51.252;9.830;2022-11-20T16:10:59;14.53;;;7.77;;
44832;SDS011;30569;51.252;9.830;2022-11-20T16:13:24;14.47;;;7.83;;
44832;SDS011;30569;51.252;9.830;2022-11-20T16:18:48;13.80;;;7.23;;
44832;SDS011;30569;51.252;9.830;2022-11-20T16:21:14;14.23;;;7.67;;
44832;SDS011;30569;51.252;9.830;2022-11-20T16:23:40;15.10;;;8.27;;